Latest Weather Observations for Nerriga

IDN60801

Issued at 1:03 pm EDT Monday 11 December 2017 (issued every 30 minutes, with the page automatically refreshed every 10 minutes)

About weather observations | Map of weather stations | Latest weather observations for NSW | Other Formats
Station Details ID: 069128 Name: NERRIGA AWS Lat: -35.11 Lon: 150.08 Height: 622.0 m
Data from the previous 72 hours. | See also: Recent months at Nerriga
Date/Time
EDT
Temp
°C
App
Temp
°C
Dew
Point
°C
Rel
Hum
%
Delta-T
°C
Wind Press
QNH
hPa
Press
MSL
hPa
Rain since
9am
mm
Dir  Spd
km/h
Gust
km/h
Spd
kts
Gust
kts
11/01:00pm 25.9 22.8 8.8 34 9.5 W 15 22 8 12 1019.4 1017.2 0.0
11/12:30pm 25.9 23.6 11.6 40 8.4 W 15 19 8 10 1019.9 1017.8 0.0
11/12:00pm 25.4 23.7 12.3 44 7.7 NNW 13 22 7 12 1020.4 1018.2 0.0
11/11:30am 24.3 24.2 13.8 52 6.3 E 7 11 4 6 1020.8 1018.6 0.0
11/11:00am 22.8 22.6 13.6 56 5.5 ESE 7 11 4 6 1021.1 1018.9 0.0
11/10:30am 21.5 21.7 14.2 63 4.4 ESE 6 11 3 6 1021.3 1019.2 0.0
11/10:00am 20.9 21.1 14.3 66 3.9 SE 6 11 3 6 1021.5 1019.4 0.0
11/09:30am 19.3 19.3 13.7 70 3.3 SE 6 9 3 5 1021.8 1019.7 0.0
11/09:00am 18.8 19.7 14.1 74 2.8 SE 2 6 1 3 1022.1 1019.9 0.0
11/08:30am 17.5 17.9 13.8 79 2.2 SE 4 6 2 3 1022.2 1020.0 0.0
11/08:00am 16.2 16.5 13.5 84 1.6 SE 4 7 2 4 1022.1 1019.9 0.0
11/07:30am 14.7 15.8 13.6 93 0.6 CALM 0 0 0 0 1021.7 1019.6 0.0
11/07:00am 12.8 13.5 12.3 97 0.3 CALM 0 0 0 0 1021.5 1019.4 0.0
11/06:30am 11.3 10.9 11.1 99 0.1 SE 4 4 2 2 1021.4 1019.3 0.0
11/06:00am 10.3 10.4 10.1 99 0.1 CALM 0 0 0 0 1021.1 1018.9 0.0
11/05:30am 10.4 10.1 10.2 99 0.1 SE 2 2 1 1 1020.8 1018.6 0.0
11/05:00am 11.3 11.7 11.1 99 0.1 CALM 0 0 0 0 1020.6 1018.4 0.0
11/04:30am 10.8 10.6 10.3 97 0.3 SE 2 6 1 3 1020.6 1018.4 0.0
11/04:00am 12.0 12.5 11.7 98 0.2 CALM 0 0 0 0 1020.6 1018.4 0.0
11/03:30am 11.7 11.7 11.2 97 0.3 SE 2 2 1 1 1020.7 1018.5 0.0
11/03:00am 12.0 12.4 11.4 96 0.3 CALM 0 0 0 0 1020.7 1018.5 0.0
11/02:30am 12.3 12.8 11.5 95 0.4 CALM 0 2 0 1 1020.9 1018.7 0.0
11/02:00am 12.8 13.0 11.9 94 0.5 SE 2 2 1 1 1021.3 1019.2 0.0
11/01:30am 13.4 13.8 12.5 94 0.5 SE 2 6 1 3 1021.6 1019.5 0.0
11/01:00am 13.8 13.5 12.7 93 0.6 SE 6 7 3 4 1022.1 1019.9 0.0
11/12:30am 14.1 13.8 12.8 92 0.7 SE 6 9 3 5 1022.5 1020.3 0.0
11/12:00am 14.5 14.2 12.7 89 1.0 SE 6 7 3 4 1022.6 1020.4 0.0
 
Date/Time
EDT
Temp
°C
App
Temp
°C
Dew
Point
°C
Rel
Hum
%
Delta-T
°C
Wind Press
QNH
hPa
Press
MSL
hPa
Rain since
9am
mm
Dir  Spd
km/h
Gust
km/h
Spd
kts
Gust
kts
10/11:30pm 15.1 14.7 13.1 88 1.1 ESE 7 9 4 5 1022.7 1020.6 0.0
10/11:00pm 15.5 15.4 13.2 86 1.3 ESE 6 7 3 4 1022.8 1020.7 0.0
10/10:30pm 15.7 15.5 13.0 84 1.5 ESE 6 7 3 4 1022.7 1020.6 0.0
10/10:00pm 16.2 16.4 12.9 81 1.9 ESE 4 11 2 6 1022.6 1020.4 0.0
10/09:30pm 17.2 17.4 13.1 77 2.4 ESE 4 6 2 3 1022.4 1020.2 0.0
10/09:00pm 17.5 17.9 12.6 73 2.8 ESE 2 7 1 4 1021.9 1019.8 0.0
10/08:30pm 18.4 18.0 13.1 71 3.1 ESE 7 11 4 6 1021.7 1019.6 0.0
10/08:00pm 19.5 18.3 12.8 65 3.9 ESE 11 17 6 9 1021.3 1019.2 0.0
10/07:30pm 20.5 19.0 13.0 62 4.4 E 13 19 7 10 1021.1 1018.9 0.0
10/07:00pm 21.2 19.0 13.4 61 4.6 E 17 24 9 13 1020.9 1018.7 0.0
10/06:30pm 22.3 20.0 14.2 60 4.9 E 19 24 10 13 1020.5 1018.3 0.0
10/06:00pm 22.9 20.6 14.2 58 5.2 E 19 28 10 15 1020.1 1018.0 0.0
10/05:30pm 23.7 20.6 14.4 56 5.6 E 24 30 13 16 1019.9 1017.8 0.0
10/05:00pm 24.5 21.4 14.6 54 6.0 E 24 33 13 18 1019.7 1017.5 0.0
10/04:30pm 28.0 25.8 7.8 28 11.2 W 9 19 5 10 1019.8 1017.6 0.0
10/04:00pm 27.6 24.6 7.5 28 11.1 NW 13 30 7 16 1019.9 1017.8 0.0
10/03:30pm 27.1 26.0 9.9 34 9.8 NW 6 11 3 6 1020.1 1018.0 0.0
10/03:00pm 27.5 25.7 9.3 32 10.3 WSW 9 17 5 9 1020.6 1018.4 0.0
10/02:30pm 26.7 24.6 8.2 31 10.3 WNW 9 20 5 11 1020.9 1018.7 0.0
10/02:00pm 25.9 23.5 8.8 34 9.5 WNW 11 22 6 12 1021.2 1019.0 0.0
10/01:30pm 25.7 24.7 10.3 38 8.8 W 6 11 3 6 1021.5 1019.4 0.0
10/01:00pm 24.1 22.5 8.9 38 8.4 N 7 17 4 9 1021.9 1019.8 0.0
10/12:30pm 23.7 22.3 9.7 41 7.9 NNW 7 15 4 8 1022.4 1020.2 0.0
10/12:00pm 23.1 22.1 12.4 51 6.2 N 9 20 5 11 1022.8 1020.7 0.0
10/11:30am 22.2 21.0 11.6 51 6.1 N 9 22 5 12 1023.0 1020.9 0.0
10/11:00am 21.4 19.7 12.5 57 5.2 NNW 13 22 7 12 1023.3 1021.2 0.0
10/10:30am 20.4 18.4 11.6 57 5.0 NNW 13 20 7 11 1023.6 1021.5 0.0
10/10:00am 19.9 17.8 12.4 62 4.3 NNW 15 22 8 12 1023.5 1021.4 0.0
10/09:30am 18.2 15.8 11.5 65 3.8 NNW 15 19 8 10 1023.8 1021.6 0.0
10/09:00am 17.0 15.3 12.3 74 2.7 ENE 13 17 7 9 1024.0 1021.8 0.0
10/08:30am 16.2 15.9 12.6 79 2.0 ESE 6 9 3 5 1023.8 1021.6 0.0
10/08:00am 15.2 14.8 12.3 83 1.6 ESE 6 7 3 4 1023.6 1021.5 0.0
10/07:30am 14.6 14.1 12.1 85 1.4 ESE 6 9 3 5 1023.5 1021.4 0.0
10/07:00am 13.7 14.6 12.8 94 0.5 CALM 0 0 0 0 1023.4 1021.3 0.0
10/06:30am 12.0 12.6 11.8 99 0.1 CALM 0 0 0 0 1023.2 1021.1 0.0
10/06:00am 11.1 11.4 10.8 98 0.2 CALM 0 0 0 0 1023.0 1020.9 0.0
10/05:30am 11.6 12.0 11.3 98 0.2 CALM 0 0 0 0 1022.7 1020.6 0.0
10/05:00am 11.3 11.6 11.0 98 0.2 CALM 0 0 0 0 1022.5 1020.3 0.0
10/04:30am 11.8 12.3 11.5 98 0.2 CALM 0 0 0 0 1022.6 1020.4 0.0
10/04:00am 11.8 12.3 11.5 98 0.2 CALM 0 0 0 0 1022.5 1020.3 0.0
10/03:30am 11.1 10.9 10.6 97 0.3 ESE 2 6 1 3 1022.5 1020.3 0.0
10/03:00am 11.3 10.4 10.7 96 0.3 ESE 6 6 3 3 1022.4 1020.2 0.0
10/02:30am 12.1 12.6 11.5 96 0.3 CALM 0 0 0 0 1022.5 1020.3 0.0
10/02:00am 12.3 11.6 11.4 94 0.5 ESE 6 6 3 3 1022.6 1020.4 0.0
10/01:30am 12.9 12.8 12.0 94 0.5 ESE 4 7 2 4 1022.6 1020.4 0.0
10/01:00am 12.7 12.4 11.6 93 0.6 ESE 4 6 2 3 1022.8 1020.7 0.0
10/12:30am 13.0 11.2 12.2 95 0.4 ESE 13 20 7 11 1022.8 1020.7 0.0
10/12:00am 12.7 13.2 11.6 93 0.6 CALM 0 0 0 0 1023.1 1021.0 0.0
 
Date/Time
EDT
Temp
°C
App
Temp
°C
Dew
Point
°C
Rel
Hum
%
Delta-T
°C
Wind Press
QNH
hPa
Press
MSL
hPa
Rain since
9am
mm
Dir  Spd
km/h
Gust
km/h
Spd
kts
Gust
kts
09/11:30pm 12.9 13.5 11.8 93 0.6 CALM 0 0 0 0 1023.1 1021.0 0.0
09/11:00pm 13.3 13.8 11.7 90 0.9 CALM 0 0 0 0 1023.0 1020.9 0.0
09/10:30pm 13.7 14.4 12.1 90 0.9 CALM 0 4 0 2 1022.8 1020.7 0.0
09/10:00pm 14.0 13.3 11.9 87 1.2 ESE 7 11 4 6 1022.4 1020.2 0.0
09/09:30pm 14.8 14.6 11.9 83 1.6 ESE 4 7 2 4 1021.9 1019.8 0.0
09/09:00pm 15.2 14.6 11.8 80 1.9 ESE 6 11 3 6 1021.6 1019.5 0.0
09/08:30pm 15.9 14.3 11.7 76 2.3 ESE 11 15 6 8 1021.3 1019.2 0.0
09/08:00pm 17.1 14.9 12.0 72 2.9 ESE 15 22 8 12 1020.9 1018.7 0.0
09/07:30pm 18.1 15.8 11.9 67 3.5 E 15 24 8 13 1020.5 1018.3 0.0
09/07:00pm 19.1 16.2 12.4 65 3.8 E 19 28 10 15 1019.8 1017.6 0.0
09/06:30pm 20.1 16.6 12.3 61 4.5 E 22 30 12 16 1019.3 1017.1 0.0
09/06:00pm 21.4 18.3 12.3 56 5.3 E 20 26 11 14 1018.7 1016.5 0.0
09/05:30pm 21.9 18.2 12.7 56 5.4 E 24 32 13 17 1018.2 1016.0 0.0
09/05:00pm 24.5 21.6 4.8 28 10.2 WNW 9 20 5 11 1018.1 1015.9 0.0
09/04:30pm 24.5 21.1 5.8 30 9.8 NW 13 24 7 13 1018.2 1016.0 0.0
09/04:00pm 24.6 21.1 5.4 29 10.0 NW 13 19 7 10 1018.3 1016.1 0.0
09/03:30pm 23.6 19.9 4.5 29 9.8 NW 13 22 7 12 1018.3 1016.1 0.0
09/03:00pm 23.3 20.1 5.2 31 9.3 WSW 11 20 6 11 1018.4 1016.3 0.0
09/02:30pm 22.9 19.3 4.9 31 9.2 WNW 13 26 7 14 1018.7 1016.5 0.0
09/02:00pm 23.2 18.7 6.1 33 9.0 NW 19 30 10 16 1018.9 1016.7 0.0
09/01:30pm 21.9 18.1 5.8 35 8.3 N 15 22 8 12 1019.1 1016.9 0.0
09/01:00pm 22.0 19.5 6.7 37 8.0 NNW 9 20 5 11 1019.5 1017.3 0.0
09/12:30pm 20.7 17.1 5.1 36 7.9 NW 13 26 7 14 1019.8 1017.6 0.0
09/12:00pm 20.4 16.0 6.7 41 7.1 WNW 19 28 10 15 1020.2 1018.1 0.0
09/11:30am 19.4 16.0 7.8 47 6.1 NW 15 28 8 15 1020.2 1018.1 0.0
09/11:00am 18.6 15.4 8.6 52 5.3 NNW 15 26 8 14 1020.2 1018.1 0.0
09/10:30am 17.5 15.6 8.9 57 4.6 N 9 19 5 10 1020.4 1018.2 0.0
09/10:00am 16.3 14.0 9.0 62 3.9 NNW 11 19 6 10 1020.6 1018.4 0.0
09/09:30am 15.5 13.1 8.7 64 3.6 NNW 11 17 6 9 1020.6 1018.4 0.0
09/09:00am 15.1 13.1 8.8 66 3.3 NNE 9 17 5 9 1020.8 1018.6 0.0
09/08:30am 14.3 12.0 8.9 70 2.8 ESE 11 17 6 9 1020.7 1018.5 0.0
09/08:00am 13.3 11.9 9.5 78 2.0 ESE 7 11 4 6 1020.6 1018.4 0.0
09/07:30am 12.5 12.4 9.5 82 1.6 CALM 0 0 0 0 1020.2 1018.1 0.0
09/07:00am 12.2 12.3 10.1 87 1.1 CALM 0 0 0 0 1019.9 1017.8 0.0
09/06:30am 10.3 10.2 9.4 94 0.5 CALM 0 0 0 0 1019.9 1017.8 0.0
09/06:00am 9.3 8.6 8.7 96 0.3 ESE 2 6 1 3 1019.2 1017.0 0.0
09/05:30am 10.0 9.8 9.2 95 0.4 CALM 0 0 0 0 1019.0 1016.8 0.0
09/05:00am 10.3 9.8 9.5 95 0.4 ESE 2 4 1 2 1019.0 1016.8 0.0
09/04:30am 10.4 9.3 9.9 97 0.3 ESE 6 7 3 4 1018.8 1016.6 0.0
09/04:00am 10.0 9.9 9.5 97 0.3 CALM 0 0 0 0 1018.8 1016.6 0.0
09/03:30am 9.4 9.2 9.1 98 0.2 CALM 0 0 0 0 1018.9 1016.7 0.0
09/03:00am 8.4 6.8 7.8 96 0.3 ESE 6 7 3 4 1019.1 1016.9 0.0
09/02:30am 8.9 8.4 8.0 94 0.4 CALM 0 2 0 1 1019.1 1016.9 0.0
09/02:00am 9.7 9.0 8.6 93 0.6 ESE 2 4 1 2 1019.1 1016.9 0.0
09/01:30am 9.6 9.3 8.5 93 0.6 CALM 0 7 0 4 1019.3 1017.1 0.0
09/01:00am 10.7 10.5 9.1 90 0.8 CALM 0 0 0 0 1019.4 1017.2 0.0
09/12:30am 10.8 10.2 8.9 88 1.0 ESE 2 6 1 3 1019.2 1017.0 0.0
09/12:00am 11.4 9.8 8.8 84 1.3 ESE 7 13 4 7 1019.3 1017.1 0.0
 
Date/Time
EDT
Temp
°C
App
Temp
°C
Dew
Point
°C
Rel
Hum
%
Delta-T
°C
Wind Press
QNH
hPa
Press
MSL
hPa
Rain since
9am
mm
Dir  Spd
km/h
Gust
km/h
Spd
kts
Gust
kts
08/11:30pm 12.0 9.4 9.4 84 1.4 ESE 13 19 7 10 1019.3 1017.1 0.0
08/11:00pm 12.1 8.8 9.7 85 1.3 ESE 17 22 9 12 1019.1 1016.9 0.0
08/10:30pm 12.2 8.8 9.0 81 1.7 ESE 17 22 9 12 1019.0 1016.8 0.0
08/10:00pm 12.3 9.5 9.9 85 1.3 ESE 15 24 8 13 1018.5 1016.4 0.0
08/09:30pm 12.2 8.7 10.1 87 1.1 ESE 19 28 10 15 1017.9 1015.7 0.0
08/09:00pm 12.3 8.7 9.9 85 1.3 ESE 19 24 10 13 1017.5 1015.3 0.0
08/08:30pm 12.3 8.7 10.0 86 1.2 SE 19 24 10 13 1017.1 1014.9 0.0
08/08:00pm 12.5 9.2 9.7 83 1.5 ESE 17 22 9 12 1016.6 1014.4 0.0
08/07:30pm 12.5 8.4 10.2 86 1.2 SE 22 30 12 16 1016.2 1014.0 0.0
08/07:00pm 13.3 9.8 10.3 82 1.6 ESE 19 26 10 14 1015.8 1013.6 0.0
08/06:30pm 13.6 10.0 10.6 82 1.6 ESE 20 28 11 15 1015.3 1013.0 0.0
08/06:00pm 13.7 10.4 10.9 83 1.5 ESE 19 28 10 15 1014.7 1012.5 0.0
08/05:30pm 15.2 11.4 11.2 77 2.2 ESE 22 33 12 18 1014.4 1012.2 0.0
08/05:00pm 15.2 11.0 11.2 77 2.2 SE 24 32 13 17 1014.0 1011.7 0.0
08/04:30pm 15.2 9.8 10.8 75 2.4 ESE 30 41 16 22 1013.7 1011.4 0.0
08/04:00pm 17.9 13.5 11.7 67 3.5 SE 26 33 14 18 1013.3 1011.1 0.0
08/03:30pm 18.5 13.7 11.8 65 3.8 ESE 28 37 15 20 1013.1 1010.9 0.0
08/03:00pm 17.1 11.8 11.4 69 3.2 SE 30 37 16 20 1013.0 1010.8 0.0
08/02:49pm 17.4 12.0 11.0 66 3.6 ESE 30 37 16 20 1012.8 1010.6 0.0
08/02:30pm 19.8 18.7 11.8 60 4.6 WSW 9 17 5 9 1012.9 1010.7 0.0
08/02:00pm 20.5 16.0 4.1 34 8.2 WNW 17 24 9 13 1012.6 1010.3 0.0
08/01:30pm 20.2 15.9 5.4 38 7.5 W 17 32 9 17 1012.7 1010.4 0.0

Other Formats:

Comma delimited format used in spreadsheet applications
http://www.bom.gov.au/fwo/IDN60801/IDN60801.94943.axf

JavaScript Object Notation format (JSON) in row-major order
http://www.bom.gov.au/fwo/IDN60801/IDN60801.94943.json